Time;durP1;ratioP1;P1;durP2;ratioP2;P2;SDS_P1;SDS_P2;PMS_P1;PMS_P2;Temp;Humidity;BMP_temperature;BMP_pressure;BME280_temperature;BME280_humidity;BME280_pressure;Samples;Min_cycle;Max_cycle;Signal;HPM_P1;HPM_P2
2021/10/22 03:04:25;;;;;;;2.40;1.10;;;18.10;69.90;;;;;;6180956;22;1494994;-81
2021/10/22 03:06:51;;;;;;;2.95;1.67;;;18.10;70.30;;;;;;6195000;23;20235;-81
2021/10/22 03:09:16;;;;;;;1.58;1.27;;;18.10;70.40;;;;;;6220672;23;20156;-81
2021/10/22 03:11:42;;;;;;;2.75;1.30;;;18.10;70.40;;;;;;6220537;23;20138;-81
2021/10/22 03:14:07;;;;;;;1.88;1.40;;;18.10;70.30;;;;;;6220404;23;20211;-80
2021/10/22 03:16:33;;;;;;;2.08;1.40;;;18.00;70.10;;;;;;6220316;23;20148;-81
2021/10/22 03:18:59;;;;;;;2.67;1.20;;;18.00;70.00;;;;;;6220374;23;20125;-81
2021/10/22 03:21:24;;;;;;;2.20;1.20;;;18.00;69.90;;;;;;6195066;23;20138;-81
2021/10/22 03:23:55;;;;;;;2.88;1.50;;;18.00;69.80;;;;;;6195275;23;20138;-81
2021/10/22 03:26:22;;;;;;;1.08;0.95;;;18.00;69.80;;;;;;6221538;23;20434;-81
2021/10/22 03:28:48;;;;;;;1.52;1.30;;;18.00;71.00;;;;;;6195685;23;20196;-81
2021/10/22 03:31:13;;;;;;;1.45;1.20;;;18.10;69.40;;;;;;6194940;23;20220;-81
2021/10/22 03:33:39;;;;;;;1.55;1.17;;;18.00;69.80;;;;;;6220311;23;20158;-81
2021/10/22 03:36:04;;;;;;;3.40;1.25;;;18.00;69.60;;;;;;6220058;23;20503;-81
2021/10/22 03:38:30;;;;;;;1.33;1.23;;;18.00;69.70;;;;;;6220107;23;20541;-81
2021/10/22 03:40:56;;;;;;;1.92;1.30;;;18.00;69.00;;;;;;6195197;23;20137;-81
2021/10/22 03:43:22;;;;;;;1.50;1.10;;;18.10;69.40;;;;;;6247988;23;20134;-81
2021/10/22 03:45:48;;;;;;;2.72;1.13;;;18.00;68.30;;;;;;6220862;23;20129;-81
2021/10/22 03:48:14;;;;;;;1.75;1.08;;;18.10;68.50;;;;;;6220786;23;20134;-81
2021/10/22 03:50:39;;;;;;;1.48;1.23;;;18.10;68.10;;;;;;6195357;23;20141;-81
2021/10/22 03:53:07;;;;;;;2.05;1.27;;;18.10;68.50;;;;;;6220914;23;20134;-81
2021/10/22 03:55:32;;;;;;;1.58;1.20;;;18.00;68.90;;;;;;6197149;23;20180;-80
2021/10/22 03:57:58;;;;;;;2.92;1.00;;;18.10;68.70;;;;;;6220875;23;20500;-80
2021/10/22 04:00:24;;;;;;;1.95;1.30;;;18.00;68.70;;;;;;6196074;23;20220;-80
2021/10/22 04:02:49;;;;;;;1.42;1.27;;;18.00;68.70;;;;;;6221289;23;20465;-80
2021/10/22 04:05:15;;;;;;;2.55;1.15;;;18.00;68.70;;;;;;6247739;23;20485;-80
2021/10/22 04:07:41;;;;;;;3.00;1.08;;;18.00;68.90;;;;;;6220798;23;20224;-80
2021/10/22 04:10:07;;;;;;;3.67;1.23;;;18.10;68.20;;;;;;6247668;23;20134;-80
2021/10/22 04:12:33;;;;;;;2.13;1.10;;;18.00;68.20;;;;;;6195878;23;20173;-80
2021/10/22 04:14:59;;;;;;;2.42;0.90;;;18.00;68.60;;;;;;6247747;23;20611;-80
2021/10/22 04:17:24;;;;;;;1.88;1.08;;;18.00;69.10;;;;;;6221826;23;20137;-80
2021/10/22 04:19:50;;;;;;;2.53;1.30;;;18.10;68.30;;;;;;6220922;23;20505;-80
2021/10/22 04:22:16;;;;;;;2.03;0.85;;;18.00;68.40;;;;;;6220488;23;20205;-80
2021/10/22 04:24:41;;;;;;;1.45;1.05;;;18.00;67.30;;;;;;6220993;23;20264;-80
2021/10/22 04:27:07;;;;;;;2.55;1.33;;;18.10;67.40;;;;;;6221344;23;20213;-80
2021/10/22 04:29:32;;;;;;;2.35;1.10;;;18.10;68.20;;;;;;6195172;23;20145;-80
2021/10/22 04:31:58;;;;;;;1.65;1.20;;;18.10;67.80;;;;;;6220292;23;20150;-81
2021/10/22 04:34:26;;;;;;;1.50;1.00;;;18.10;67.30;;;;;;6247443;23;20196;-80
2021/10/22 04:36:52;;;;;;;1.80;1.05;;;18.10;68.10;;;;;;6221199;23;20142;-80
2021/10/22 04:41:56;;;;;;;3.85;1.30;;;18.10;67.00;;;;;;6224429;23;20133;-80
2021/10/22 04:44:23;;;;;;;1.42;1.08;;;18.00;67.20;;;;;;6195345;23;20153;-80
2021/10/22 04:46:49;;;;;;;1.98;1.10;;;18.10;68.00;;;;;;6247537;23;20126;-80
2021/10/22 04:49:15;;;;;;;1.92;1.10;;;18.10;67.70;;;;;;6220493;23;20145;-80
2021/10/22 04:51:40;;;;;;;2.70;1.10;;;18.10;67.20;;;;;;6221071;23;20134;-80
2021/10/22 04:54:06;;;;;;;1.30;1.00;;;18.10;67.30;;;;;;6220761;23;20298;-79
2021/10/22 04:56:32;;;;;;;1.95;1.05;;;18.10;67.20;;;;;;6220577;23;20533;-80
2021/10/22 04:58:57;;;;;;;1.60;1.05;;;18.00;67.50;;;;;;6220768;23;20134;-82
2021/10/22 05:01:23;;;;;;;1.13;1.00;;;18.10;68.00;;;;;;6220600;23;20213;-80
2021/10/22 05:03:49;;;;;;;1.60;0.90;;;18.00;67.20;;;;;;6190301;23;20193;-80
2021/10/22 05:06:15;;;;;;;1.20;1.10;;;18.10;67.50;;;;;;6215332;23;20589;-80
2021/10/22 05:08:40;;;;;;;1.00;0.90;;;18.10;67.00;;;;;;6215159;23;20176;-81
2021/10/22 05:11:06;;;;;;;1.58;1.00;;;18.10;67.30;;;;;;6215399;23;20134;-81
2021/10/22 05:13:31;;;;;;;2.10;1.13;;;18.10;67.20;;;;;;6190406;23;20174;-80
2021/10/22 05:15:57;;;;;;;2.13;0.90;;;18.00;67.20;;;;;;6191399;23;20150;-80
2021/10/22 05:18:23;;;;;;;1.98;1.23;;;18.00;66.90;;;;;;6217391;23;20154;-80
2021/10/22 05:20:49;;;;;;;1.40;1.10;;;18.10;67.40;;;;;;6216862;23;20558;-80
2021/10/22 05:23:15;;;;;;;1.95;1.23;;;18.00;67.40;;;;;;6216870;23;20142;-80
2021/10/22 05:25:40;;;;;;;1.63;1.13;;;18.00;67.50;;;;;;6217409;23;20142;-80
2021/10/22 05:28:06;;;;;;;2.05;1.10;;;18.00;68.10;;;;;;6216418;23;20566;-80
2021/10/22 05:30:32;;;;;;;3.05;1.02;;;18.00;67.10;;;;;;6215655;23;20605;-79
2021/10/22 05:32:57;;;;;;;3.35;1.10;;;18.00;67.50;;;;;;6217409;23;20130;-78
2021/10/22 05:35:23;;;;;;;1.40;1.10;;;18.00;67.00;;;;;;6218347;23;20169;-80
2021/10/22 05:37:49;;;;;;;2.50;1.00;;;18.00;67.40;;;;;;6217876;23;20138;-79
2021/10/22 05:40:14;;;;;;;1.40;0.90;;;18.00;66.70;;;;;;6218182;23;20135;-79
2021/10/22 05:42:40;;;;;;;1.95;0.93;;;18.00;66.80;;;;;;6217275;23;20501;-79
2021/10/22 05:45:06;;;;;;;2.30;1.02;;;18.00;67.40;;;;;;6217490;23;20131;-80
2021/10/22 05:47:32;;;;;;;1.20;0.98;;;18.00;67.30;;;;;;6217756;23;20131;-79
2021/10/22 05:49:58;;;;;;;2.00;1.23;;;18.00;66.80;;;;;;6217553;23;20217;-79
2021/10/22 05:52:24;;;;;;;2.47;1.20;;;18.00;67.10;;;;;;6217334;23;20142;-80
2021/10/22 05:54:51;;;;;;;1.52;1.08;;;18.00;66.70;;;;;;6217222;23;20162;-79
2021/10/22 05:57:16;;;;;;;1.33;1.10;;;18.00;66.90;;;;;;6217164;23;20555;-80
2021/10/22 05:59:43;;;;;;;2.78;0.90;;;18.00;66.40;;;;;;6191385;23;20149;-80
2021/10/22 06:02:09;;;;;;;1.10;1.00;;;18.00;66.10;;;;;;6216845;23;20158;-80
2021/10/22 06:04:35;;;;;;;1.40;0.93;;;18.00;66.70;;;;;;6216377;23;20181;-79
2021/10/22 06:07:01;;;;;;;1.30;0.95;;;18.00;65.40;;;;;;6216947;23;20604;-80
2021/10/22 06:09:28;;;;;;;1.13;1.00;;;18.10;66.40;;;;;;6218640;23;20139;-80
2021/10/22 06:11:54;;;;;;;1.75;1.10;;;18.00;66.10;;;;;;6218088;23;20138;-79
2021/10/22 06:14:20;;;;;;;1.40;0.95;;;18.00;66.20;;;;;;6218383;23;20189;-79
2021/10/22 06:16:46;;;;;;;1.08;0.98;;;18.10;66.00;;;;;;6218674;23;20497;-79
2021/10/22 06:19:16;;;;;;;1.70;1.10;;;18.10;65.80;;;;;;6218829;23;20142;-78
2021/10/22 06:24:15;;;;;;;1.73;1.02;;;18.10;67.00;;;;;;6218310;23;20145;-81
2021/10/22 06:26:42;;;;;;;1.80;0.95;;;18.10;66.10;;;;;;6218361;23;20131;-79
2021/10/22 06:29:11;;;;;;;1.50;1.00;;;18.10;65.90;;;;;;6216072;23;20153;-80
2021/10/22 06:31:38;;;;;;;1.23;0.95;;;18.00;66.40;;;;;;6216215;23;20162;-81
2021/10/22 06:34:04;;;;;;;1.92;1.20;;;18.00;66.50;;;;;;6218013;23;20253;-80
2021/10/22 06:36:30;;;;;;;2.03;1.10;;;18.00;66.20;;;;;;6215883;23;20138;-79
2021/10/22 06:38:56;;;;;;;1.60;0.98;;;18.00;65.80;;;;;;6215498;23;20457;-81
2021/10/22 06:41:22;;;;;;;1.08;0.88;;;18.00;66.50;;;;;;6216722;23;20146;-79
2021/10/22 06:43:47;;;;;;;1.23;0.90;;;18.10;66.50;;;;;;6215270;23;20138;-80
2021/10/22 06:46:13;;;;;;;1.60;0.98;;;18.00;66.90;;;;;;6216501;23;20565;-80
2021/10/22 06:48:40;;;;;;;1.00;0.80;;;18.00;66.20;;;;;;6217283;23;20131;-81
2021/10/22 06:51:07;;;;;;;1.33;0.95;;;18.00;66.10;;;;;;6216926;23;20184;-80
2021/10/22 06:53:33;;;;;;;1.10;1.00;;;18.00;65.00;;;;;;6216595;23;20261;-79
2021/10/22 06:55:59;;;;;;;1.23;0.90;;;18.00;65.90;;;;;;6215093;23;20486;-81
2021/10/22 06:58:24;;;;;;;1.08;0.93;;;18.10;66.20;;;;;;6189794;23;20146;-81
2021/10/22 07:00:51;;;;;;;1.40;0.90;;;18.10;66.10;;;;;;6214864;23;20142;-81
2021/10/22 07:03:22;;;;;;;0.93;0.90;;;18.10;65.20;;;;;;6189886;23;20197;-79
2021/10/22 07:06:02;;;;;;;2.40;0.73;;;18.10;65.20;;;;;;6246611;23;20141;-80
2021/10/22 07:08:28;;;;;;;1.10;0.82;;;18.10;65.60;;;;;;6222968;23;20125;-81
2021/10/22 07:10:53;;;;;;;1.63;1.00;;;18.10;65.20;;;;;;6220193;23;20583;-80
2021/10/22 07:13:20;;;;;;;2.47;0.80;;;18.10;65.40;;;;;;6246504;23;20153;-81
2021/10/22 07:15:46;;;;;;;0.85;0.80;;;18.10;65.40;;;;;;6247264;23;20134;-80
2021/10/22 07:18:12;;;;;;;1.50;0.90;;;18.20;65.20;;;;;;6247151;23;20213;-81
2021/10/22 07:20:37;;;;;;;1.40;0.80;;;18.20;64.80;;;;;;6247896;23;20137;-79
2021/10/22 07:23:06;;;;;;;0.88;0.80;;;18.20;64.90;;;;;;6248009;23;20138;-80
2021/10/22 07:25:35;;;;;;;1.10;1.00;;;18.30;64.70;;;;;;6221785;23;20184;-80
2021/10/22 07:28:07;;;;;;;1.15;0.70;;;18.30;62.80;;;;;;6248024;23;20160;-81
2021/10/22 07:30:33;;;;;;;1.15;0.80;;;18.40;62.40;;;;;;6221764;23;20129;-80
2021/10/22 07:32:59;;;;;;;1.88;0.93;;;18.40;62.10;;;;;;6246983;23;20144;-81
2021/10/22 07:35:25;;;;;;;1.70;1.00;;;18.50;63.00;;;;;;6247471;23;20248;-80
2021/10/22 07:37:51;;;;;;;1.65;0.80;;;18.50;62.20;;;;;;6247970;23;20134;-79
2021/10/22 07:40:17;;;;;;;1.90;1.02;;;18.50;62.80;;;;;;6248959;23;20191;-80
2021/10/22 07:42:42;;;;;;;1.65;0.77;;;18.60;61.90;;;;;;6250170;23;20197;-81
2021/10/22 07:45:09;;;;;;;1.17;0.80;;;18.60;62.20;;;;;;6222239;23;20157;-79
2021/10/22 07:47:35;;;;;;;0.82;0.70;;;18.60;62.50;;;;;;6249430;23;20192;-80
2021/10/22 07:50:01;;;;;;;1.50;1.10;;;18.60;63.40;;;;;;6197241;23;20213;-79
2021/10/22 07:52:28;;;;;;;1.15;1.00;;;18.60;64.00;;;;;;6249660;23;20134;-81
2021/10/22 07:54:54;;;;;;;1.17;0.95;;;18.60;63.40;;;;;;6248131;23;20291;-80
2021/10/22 07:57:23;;;;;;;0.77;0.75;;;18.60;63.40;;;;;;6248241;23;20233;-81
2021/10/22 07:59:48;;;;;;;1.25;0.85;;;18.70;61.20;;;;;;6221291;23;20130;-82
2021/10/22 08:02:14;;;;;;;1.75;1.00;;;18.70;62.10;;;;;;6195091;23;20138;-81
2021/10/22 08:04:44;;;;;;;1.92;0.90;;;18.70;63.60;;;;;;6220456;23;20204;-81
2021/10/22 08:07:10;;;;;;;0.95;0.70;;;18.70;62.40;;;;;;6221515;23;20140;-82
2021/10/22 08:09:36;;;;;;;1.63;1.15;;;18.70;62.40;;;;;;6220879;23;20184;-83
2021/10/22 08:12:02;;;;;;;1.80;1.00;;;18.70;62.80;;;;;;6220449;23;20134;-82
2021/10/22 08:14:27;;;;;;;1.00;0.80;;;18.70;63.10;;;;;;6246881;23;20165;-82
2021/10/22 08:16:53;;;;;;;2.25;0.88;;;18.70;62.80;;;;;;6246964;23;20472;-83
2021/10/22 08:19:19;;;;;;;0.88;0.80;;;18.70;62.60;;;;;;6220129;23;20137;-81
2021/10/22 08:22:25;;;;;;;1.20;0.93;;;18.70;62.10;;;;;;6247855;23;20140;-81
2021/10/22 08:24:30;;;;;;;2.33;1.08;;;18.70;62.50;;;;;;6246808;23;20145;-82
2021/10/22 08:26:56;;;;;;;1.00;0.88;;;18.80;62.50;;;;;;6245845;23;20134;-81
2021/10/22 08:29:23;;;;;;;2.83;0.95;;;18.80;63.00;;;;;;6193818;23;20224;-80
2021/10/22 08:31:48;;;;;;;0.90;0.80;;;18.80;62.80;;;;;;6245943;23;20134;-80
2021/10/22 08:34:14;;;;;;;1.42;0.90;;;18.80;62.20;;;;;;6245452;23;20240;-81
2021/10/22 08:36:40;;;;;;;1.05;0.70;;;18.80;62.90;;;;;;6245781;23;20561;-82
2021/10/22 08:39:06;;;;;;;1.10;1.00;;;18.80;62.90;;;;;;6245880;23;20137;-82
2021/10/22 08:41:31;;;;;;;2.30;0.80;;;18.80;62.70;;;;;;6219066;23;20145;-82
2021/10/22 08:43:57;;;;;;;0.93;0.77;;;18.80;62.30;;;;;;6219347;23;20508;-81
2021/10/22 08:46:22;;;;;;;1.40;0.70;;;18.80;62.70;;;;;;6219726;23;20134;-81
2021/10/22 08:48:49;;;;;;;0.98;0.85;;;18.80;61.40;;;;;;6245866;23;20526;-81
2021/10/22 08:51:18;;;;;;;1.58;1.02;;;18.90;62.00;;;;;;6247412;23;20187;-82
2021/10/22 08:53:45;;;;;;;1.00;0.88;;;18.80;61.90;;;;;;6247615;23;20260;-81
2021/10/22 08:56:11;;;;;;;0.70;0.70;;;18.90;61.70;;;;;;6246021;23;20182;-79
2021/10/22 08:58:36;;;;;;;1.50;0.90;;;18.90;61.90;;;;;;6247775;23;20130;-82
2021/10/22 09:01:02;;;;;;;1.02;0.77;;;18.90;62.00;;;;;;6247679;23;20134;-81
2021/10/22 09:03:38;;;;;;;1.42;0.90;;;18.90;61.80;;;;;;6246152;23;20140;-82
2021/10/22 09:06:09;;;;;;;0.75;0.70;;;18.90;61.90;;;;;;6221840;23;20514;-81
2021/10/22 09:08:37;;;;;;;1.40;1.02;;;18.90;61.40;;;;;;6221545;23;20137;-82
2021/10/22 09:11:04;;;;;;;1.05;0.90;;;18.90;62.00;;;;;;6223141;23;20503;-83
2021/10/22 09:13:32;;;;;;;1.02;0.93;;;18.90;61.90;;;;;;6225311;23;20168;-81
2021/10/22 09:15:58;;;;;;;1.60;1.00;;;18.90;61.90;;;;;;6221281;23;20448;-82
2021/10/22 09:18:28;;;;;;;1.20;0.88;;;19.00;61.30;;;;;;6221566;23;20137;-82
2021/10/22 09:20:58;;;;;;;0.93;0.70;;;19.00;61.40;;;;;;6196819;23;20198;-82
2021/10/22 09:23:26;;;;;;;1.17;0.90;;;19.00;60.30;;;;;;6221071;23;20133;-81
2021/10/22 09:25:52;;;;;;;1.23;0.70;;;19.00;60.60;;;;;;6221504;23;20137;-82
2021/10/22 09:28:25;;;;;;;1.17;0.80;;;19.00;61.10;;;;;;6220974;23;20134;-82
2021/10/22 09:30:51;;;;;;;0.85;0.80;;;19.00;60.70;;;;;;6221344;23;20461;-81
2021/10/22 09:33:18;;;;;;;0.80;0.65;;;19.00;60.60;;;;;;6220986;23;20138;-82
2021/10/22 09:35:47;;;;;;;0.80;0.75;;;19.00;61.00;;;;;;6247613;23;20143;-82
2021/10/22 09:38:25;;;;;;;1.48;0.80;;;19.00;60.90;;;;;;6220603;23;20745;-82
2021/10/22 09:41:01;;;;;;;1.13;0.80;;;19.10;60.80;;;;;;6248144;23;20513;-82
2021/10/22 09:43:29;;;;;;;1.13;0.80;;;19.00;60.20;;;;;;6220699;23;20547;-82
2021/10/22 09:46:17;;;;;;;2.05;0.90;;;19.10;58.90;;;;;;6220424;23;20145;-82
2021/10/22 09:48:45;;;;;;;1.05;0.90;;;19.10;59.30;;;;;;6247181;23;20545;-83
2021/10/22 09:51:22;;;;;;;1.15;0.80;;;19.10;60.30;;;;;;6249588;23;20136;-82
2021/10/22 09:53:48;;;;;;;1.10;0.73;;;19.10;60.60;;;;;;6221226;23;20169;-82
2021/10/22 09:56:23;;;;;;;1.27;0.82;;;19.10;59.60;;;;;;6220732;23;20557;-82
2021/10/22 09:59:02;;;;;;;1.85;0.80;;;19.10;59.60;;;;;;6220620;23;20220;-81
2021/10/22 10:01:30;;;;;;;1.58;0.88;;;19.10;59.60;;;;;;6247585;23;20129;-81
2021/10/22 10:03:58;;;;;;;0.85;0.77;;;19.20;60.30;;;;;;6219990;23;20173;-82
2021/10/22 10:06:24;;;;;;;1.10;0.80;;;19.20;59.90;;;;;;6221007;23;20141;-82
2021/10/22 10:08:50;;;;;;;0.98;0.80;;;19.10;60.40;;;;;;6220350;23;20134;-82
2021/10/22 10:11:16;;;;;;;2.95;0.80;;;19.20;60.10;;;;;;6246898;23;20136;-82
2021/10/22 10:13:42;;;;;;;0.70;0.70;;;19.20;59.50;;;;;;6220330;23;20555;-81
2021/10/22 10:16:09;;;;;;;0.90;0.80;;;19.20;60.00;;;;;;6246596;23;20133;-82
2021/10/22 10:18:40;;;;;;;1.13;0.70;;;19.20;59.60;;;;;;6246831;23;20133;-82
2021/10/22 10:21:07;;;;;;;0.80;0.80;;;19.20;60.10;;;;;;6247131;23;20465;-82
2021/10/22 10:23:34;;;;;;;0.60;0.60;;;19.20;60.10;;;;;;6246964;23;20138;-82
2021/10/22 10:26:17;;;;;;;0.98;0.93;;;19.20;59.30;;;;;;6246958;23;20130;-82
2021/10/22 10:28:43;;;;;;;0.80;0.80;;;19.20;59.90;;;;;;6247549;23;20211;-82
2021/10/22 10:31:27;;;;;;;1.52;1.00;;;19.20;59.80;;;;;;6247105;23;20133;-81
2021/10/22 10:33:55;;;;;;;0.85;0.65;;;19.20;60.20;;;;;;6247668;23;20488;-82
2021/10/22 10:36:44;;;;;;;0.70;0.70;;;19.20;60.00;;;;;;6221527;23;20557;-81
2021/10/22 10:39:09;;;;;;;1.83;1.02;;;19.20;59.90;;;;;;6247703;23;20525;-81
2021/10/22 10:41:35;;;;;;;0.90;0.70;;;19.20;59.20;;;;;;6247272;23;20154;-81
2021/10/22 10:44:30;;;;;;;0.77;0.70;;;19.20;59.60;;;;;;6220267;23;20145;-81
2021/10/22 10:46:58;;;;;;;1.20;0.80;;;19.20;59.70;;;;;;6220246;23;20138;-82
2021/10/22 10:49:55;;;;;;;1.00;0.80;;;19.20;59.60;;;;;;6183746;23;20159;-82
2021/10/22 10:52:42;;;;;;;1.15;0.70;;;19.30;59.60;;;;;;6163822;23;20150;-82
2021/10/22 10:55:23;;;;;;;0.60;0.60;;;19.30;59.40;;;;;;6183849;23;20171;-81
2021/10/22 10:57:52;;;;;;;0.80;0.70;;;19.30;59.40;;;;;;6184150;23;20135;-81
2021/10/22 11:00:19;;;;;;;1.20;0.80;;;19.30;59.60;;;;;;6134916;23;20218;-81
2021/10/22 11:03:05;;;;;;;0.73;0.73;;;19.30;59.30;;;;;;6184223;23;20595;-82
2021/10/22 11:06:06;;;;;;;0.88;0.77;;;19.30;59.50;;;;;;6184173;23;20210;-82
2021/10/22 11:08:41;;;;;;;0.80;0.70;;;19.30;59.60;;;;;;6158820;23;20142;-82
2021/10/22 11:11:27;;;;;;;1.67;0.82;;;19.30;59.40;;;;;;6134557;23;20138;-81
2021/10/22 11:14:11;;;;;;;1.15;0.80;;;19.30;59.60;;;;;;6162724;23;20228;-82
2021/10/22 11:16:45;;;;;;;0.73;0.60;;;19.30;59.20;;;;;;6183823;23;20241;-82
2021/10/22 11:19:14;;;;;;;0.70;0.70;;;19.30;59.30;;;;;;6160308;23;20169;-81
2021/10/22 11:21:46;;;;;;;0.82;0.68;;;19.30;58.50;;;;;;6246792;23;20620;-82
2021/10/22 11:24:15;;;;;;;1.17;0.75;;;19.30;58.70;;;;;;6247316;23;20172;-82
2021/10/22 11:26:41;;;;;;;1.00;0.90;;;19.40;58.90;;;;;;6247029;23;20216;-82
2021/10/22 11:29:22;;;;;;;0.63;0.60;;;19.40;58.70;;;;;;6220440;23;20156;-82
2021/10/22 11:31:53;;;;;;;1.27;0.88;;;19.40;58.50;;;;;;6220122;23;20156;-81
2021/10/22 11:34:23;;;;;;;0.65;0.65;;;19.40;58.70;;;;;;6197168;23;20512;-82
2021/10/22 11:37:01;;;;;;;0.60;0.60;;;19.40;58.90;;;;;;6220916;23;20145;-82
2021/10/22 11:39:32;;;;;;;0.75;0.60;;;19.40;58.50;;;;;;6247355;23;20159;-82
2021/10/22 11:42:08;;;;;;;0.82;0.68;;;19.40;58.30;;;;;;6247936;23;20126;-82
2021/10/22 11:44:35;;;;;;;0.70;0.70;;;19.40;57.70;;;;;;6221478;23;20525;-82
2021/10/22 11:47:00;;;;;;;0.68;0.60;;;19.40;58.10;;;;;;6246858;23;20166;-82
2021/10/22 11:49:29;;;;;;;0.98;0.68;;;19.40;57.10;;;;;;6220469;23;20141;-82
2021/10/22 11:51:56;;;;;;;0.65;0.63;;;19.50;57.80;;;;;;6220111;23;20130;-82
2021/10/22 11:54:23;;;;;;;0.80;0.80;;;19.50;57.60;;;;;;6195094;23;20498;-82
2021/10/22 11:56:49;;;;;;;0.70;0.70;;;19.50;58.30;;;;;;6219693;23;20184;-82
2021/10/22 11:59:15;;;;;;;0.60;0.60;;;19.50;58.10;;;;;;6195006;23;20469;-82
2021/10/22 12:01:42;;;;;;;1.10;1.00;;;19.40;57.20;;;;;;6219984;23;20149;-82
2021/10/22 12:04:21;;;;;;;0.70;0.70;;;19.50;58.50;;;;;;6219555;23;20217;-82
2021/10/22 12:07:06;;;;;;;0.90;0.70;;;19.40;58.30;;;;;;6246329;23;20138;-82
2021/10/22 12:09:33;;;;;;;0.80;0.60;;;19.40;58.30;;;;;;6246158;23;20130;-82
2021/10/22 12:12:02;;;;;;;0.68;0.60;;;19.50;57.00;;;;;;6219443;23;20129;-82
2021/10/22 12:14:38;;;;;;;3.17;0.68;;;19.50;57.30;;;;;;6220611;23;20192;-82
2021/10/22 12:17:05;;;;;;;0.65;0.60;;;19.50;55.50;;;;;;6219595;23;20172;-83
2021/10/22 12:19:31;;;;;;;0.65;0.60;;;19.50;57.60;;;;;;6219555;23;20129;-82
2021/10/22 12:21:57;;;;;;;1.00;0.70;;;19.50;58.10;;;;;;6194145;23;20159;-82
2021/10/22 12:24:23;;;;;;;1.23;0.60;;;19.50;57.30;;;;;;6219444;23;20178;-82
2021/10/22 12:26:48;;;;;;;1.08;0.70;;;19.50;56.60;;;;;;6245757;23;20126;-82
2021/10/22 12:29:14;;;;;;;0.60;0.60;;;19.50;58.10;;;;;;6245868;23;20216;-82
2021/10/22 12:31:44;;;;;;;0.95;0.85;;;19.40;56.90;;;;;;6245900;23;20211;-82
2021/10/22 12:34:13;;;;;;;1.20;0.80;;;19.50;57.20;;;;;;6220019;23;20446;-81
2021/10/22 12:36:42;;;;;;;0.55;0.50;;;19.60;58.00;;;;;;6194851;23;20145;-81
2021/10/22 12:39:26;;;;;;;1.35;0.80;;;19.60;54.50;;;;;;6246378;23;20134;-81
2021/10/22 12:41:52;;;;;;;1.10;0.68;;;19.60;56.90;;;;;;6245923;23;20209;-82
2021/10/22 12:44:19;;;;;;;0.52;0.50;;;19.60;57.20;;;;;;6193966;23;20145;-81
2021/10/22 12:46:56;;;;;;;0.80;0.60;;;19.60;57.30;;;;;;6245813;23;20148;-82
2021/10/22 12:49:24;;;;;;;0.70;0.65;;;19.60;57.00;;;;;;6245303;23;20216;-81
2021/10/22 12:51:55;;;;;;;1.52;0.60;;;19.60;55.50;;;;;;6245357;23;20133;-81
2021/10/22 12:54:21;;;;;;;1.10;0.70;;;19.60;56.00;;;;;;6246064;23;20169;-81
2021/10/22 12:56:56;;;;;;;0.73;0.73;;;19.50;56.80;;;;;;6246075;23;20216;-81
2021/10/22 12:59:23;;;;;;;0.85;0.50;;;19.60;56.20;;;;;;6245844;23;20212;-81
2021/10/22 13:01:49;;;;;;;0.55;0.45;;;19.60;54.80;;;;;;6245802;23;20504;-81
2021/10/22 13:04:19;;;;;;;0.40;0.40;;;19.60;54.00;;;;;;6245218;23;20224;-81
2021/10/22 13:06:56;;;;;;;0.80;0.63;;;19.70;52.90;;;;;;6218624;23;20146;-81
2021/10/22 13:12:43;;;;;;;0.80;0.60;;;19.70;54.50;;;;;;6223723;23;20188;-81
2021/10/22 13:15:19;;;;;;;0.50;0.50;;;19.80;51.90;;;;;;6222546;23;20522;-81
2021/10/22 13:20:29;;;;;;;0.63;0.60;;;19.70;55.20;;;;;;6245219;23;20133;-80
2021/10/22 13:22:56;;;;;;;0.88;0.80;;;19.70;53.90;;;;;;6220897;23;20191;-80
2021/10/22 13:25:22;;;;;;;0.60;0.60;;;19.70;54.40;;;;;;6218755;23;20220;-79
2021/10/22 13:27:48;;;;;;;0.63;0.63;;;19.70;52.30;;;;;;6245468;23;20508;-80
2021/10/22 13:30:17;;;;;;;0.57;0.57;;;19.80;53.90;;;;;;6245372;23;20580;-80
2021/10/22 13:32:43;;;;;;;1.48;0.60;;;19.80;54.30;;;;;;6245732;23;20126;-80
2021/10/22 13:35:09;;;;;;;1.10;0.70;;;19.70;55.10;;;;;;6218812;23;20615;-81
2021/10/22 13:37:37;;;;;;;0.60;0.60;;;19.70;52.30;;;;;;6221448;23;20184;-81
2021/10/22 13:40:04;;;;;;;1.30;0.90;;;19.70;54.00;;;;;;6222481;23;20130;-80
2021/10/22 13:42:30;;;;;;;0.68;0.60;;;19.70;52.80;;;;;;6248333;23;20149;-80
2021/10/22 13:44:56;;;;;;;0.60;0.60;;;19.80;54.90;;;;;;6248167;23;20141;-80
2021/10/22 13:47:21;;;;;;;1.60;0.63;;;19.70;54.10;;;;;;6247728;23;20201;-80
2021/10/22 13:49:50;;;;;;;0.68;0.50;;;19.70;56.50;;;;;;6222461;23;20180;-80
2021/10/22 13:52:16;;;;;;;0.95;0.60;;;19.70;54.60;;;;;;6251293;23;20183;-81
2021/10/22 13:54:42;;;;;;;0.70;0.50;;;19.60;55.60;;;;;;6249361;23;20192;-79
2021/10/22 13:57:08;;;;;;;1.52;0.57;;;19.70;54.50;;;;;;6244491;23;20134;-80
2021/10/22 13:59:36;;;;;;;0.77;0.70;;;19.70;54.40;;;;;;6245838;23;20221;-79
2021/10/22 14:02:03;;;;;;;1.10;0.90;;;19.60;54.20;;;;;;6246138;23;20179;-80
2021/10/22 14:04:29;;;;;;;0.63;0.60;;;19.60;55.30;;;;;;6245626;23;20202;-80
2021/10/22 14:06:54;;;;;;;0.80;0.68;;;19.60;54.50;;;;;;6220779;23;20157;-80
2021/10/22 14:09:20;;;;;;;0.85;0.77;;;19.60;55.50;;;;;;6246457;23;20580;-80
2021/10/22 14:11:56;;;;;;;0.70;0.70;;;19.60;56.30;;;;;;6221258;23;20129;-79
2021/10/22 14:14:35;;;;;;;0.90;0.70;;;19.60;56.10;;;;;;6247827;23;20173;-80
2021/10/22 14:17:22;;;;;;;0.98;0.70;;;19.60;55.20;;;;;;6247074;23;20576;-80
2021/10/22 14:28:53;;;;;;;0.88;0.70;;;19.70;55.10;;;;;;6225371;23;20134;-80
2021/10/22 14:30:42;;;;;;;1.27;0.60;;;19.60;55.50;;;;;;6227848;23;20170;-79
2021/10/22 14:33:08;;;;;;;1.02;0.70;;;19.70;55.10;;;;;;6221415;23;20134;-79
2021/10/22 14:35:34;;;;;;;0.70;0.70;;;19.70;55.30;;;;;;6247507;23;20165;-79
2021/10/22 14:38:00;;;;;;;0.70;0.60;;;19.60;54.80;;;;;;6247328;23;20517;-79
2021/10/22 14:40:26;;;;;;;0.50;0.50;;;19.70;55.10;;;;;;6246458;23;20175;-79
2021/10/22 14:42:56;;;;;;;0.77;0.63;;;19.70;55.10;;;;;;6247113;23;20138;-80
2021/10/22 14:45:37;;;;;;;1.38;0.70;;;19.70;55.70;;;;;;6195805;23;20156;-80
2021/10/22 14:48:09;;;;;;;1.15;0.82;;;19.70;55.50;;;;;;6249767;23;20219;-80
2021/10/22 14:50:40;;;;;;;1.23;0.75;;;19.70;56.00;;;;;;6249386;23;20184;-80
2021/10/22 14:55:46;;;;;;;1.60;0.60;;;19.70;54.60;;;;;;6248462;23;20169;-82
2021/10/22 14:58:11;;;;;;;0.70;0.70;;;19.70;54.70;;;;;;6221176;23;20263;-80
2021/10/22 15:00:40;;;;;;;3.75;0.73;;;19.70;55.10;;;;;;6219245;23;20581;-82
2021/10/22 15:03:07;;;;;;;0.90;0.60;;;19.70;56.10;;;;;;6220255;23;20205;-80
2021/10/22 15:05:34;;;;;;;1.42;0.68;;;19.70;54.80;;;;;;6247558;23;20241;-80
2021/10/22 15:08:00;;;;;;;1.45;0.57;;;19.70;55.50;;;;;;6198825;23;20449;-80
2021/10/22 15:10:27;;;;;;;2.67;0.85;;;19.70;56.20;;;;;;6249988;23;20183;-79
2021/10/22 15:12:53;;;;;;;1.58;0.90;;;19.80;56.50;;;;;;6251195;23;20134;-79
2021/10/22 15:15:21;;;;;;;1.15;0.50;;;19.80;55.30;;;;;;6222498;23;20550;-80
2021/10/22 15:17:46;;;;;;;0.70;0.60;;;19.80;54.70;;;;;;6248623;23;20133;-79
2021/10/22 15:20:12;;;;;;;2.53;0.80;;;19.80;54.80;;;;;;6222965;23;20163;-79
2021/10/22 15:22:38;;;;;;;3.63;0.60;;;19.80;56.40;;;;;;6225286;23;20134;-79
2021/10/22 15:25:04;;;;;;;4.25;0.73;;;19.80;56.30;;;;;;6252400;23;20141;-79
2021/10/22 15:27:29;;;;;;;1.58;0.68;;;19.80;56.30;;;;;;6226290;23;20197;-79
2021/10/22 15:29:55;;;;;;;2.95;0.80;;;19.80;56.60;;;;;;6253395;23;20129;-80
2021/10/22 15:32:21;;;;;;;2.58;0.90;;;19.80;56.60;;;;;;6252041;23;20130;-80
2021/10/22 15:34:48;;;;;;;0.70;0.60;;;19.80;55.70;;;;;;6223635;23;20196;-80
2021/10/22 15:37:14;;;;;;;0.65;0.63;;;19.90;55.30;;;;;;6221094;23;20192;-80
2021/10/22 15:39:40;;;;;;;2.40;0.70;;;19.80;55.30;;;;;;6248418;23;20133;-80
2021/10/22 15:42:05;;;;;;;4.90;0.90;;;19.80;55.30;;;;;;6247164;23;20196;-81
2021/10/22 15:44:31;;;;;;;1.73;0.80;;;19.90;56.00;;;;;;6247118;23;20165;-80
2021/10/22 15:47:03;;;;;;;3.17;0.90;;;19.90;55.60;;;;;;6250850;23;20130;-80
2021/10/22 15:49:33;;;;;;;2.58;0.95;;;19.90;55.90;;;;;;6250758;23;20185;-80
2021/10/22 15:52:00;;;;;;;4.47;0.82;;;19.90;56.00;;;;;;6222015;23;20583;-79
2021/10/22 15:54:27;;;;;;;4.00;1.00;;;19.90;55.70;;;;;;6250880;23;20165;-82
2021/10/22 15:56:53;;;;;;;2.45;0.70;;;19.90;56.40;;;;;;6222717;23;20137;-79
2021/10/22 15:59:19;;;;;;;2.33;0.90;;;19.90;56.00;;;;;;6222860;23;20133;-79
2021/10/22 16:01:47;;;;;;;2.13;1.08;;;19.90;56.00;;;;;;6248748;23;20125;-81
2021/10/22 16:04:16;;;;;;;1.92;0.60;;;19.90;55.80;;;;;;6215934;23;20188;-80
2021/10/22 16:09:30;;;;;;;5.63;0.93;;;20.00;56.60;;;;;;6216169;23;20130;-80
2021/10/22 16:12:01;;;;;;;6.45;0.95;;;19.90;56.60;;;;;;6217515;23;20180;-80
2021/10/22 16:17:09;;;;;;;7.75;1.08;;;19.90;56.60;;;;;;6223609;23;20211;-81
2021/10/22 16:19:35;;;;;;;6.32;1.02;;;19.80;56.10;;;;;;6195558;23;20157;-81
2021/10/22 16:22:01;;;;;;;3.35;0.93;;;19.80;56.70;;;;;;6195570;23;20153;-82
2021/10/22 16:24:27;;;;;;;5.20;1.00;;;19.80;56.60;;;;;;6221196;23;20138;-82